Time;durP1;ratioP1;P1;durP2;ratioP2;P2;SDS_P1;SDS_P2;PMS_P1;PMS_P2;Temp;Humidity;BMP_temperature;BMP_pressure;BME280_temperature;BME280_humidity;BME280_pressure;Samples;Min_cycle;Max_cycle;Signal;HPM_P1;HPM_P2
2024/01/02 00:01:21;;;;;;;15.35;4.03;;;;;;;5.09;100.00;99874.97;5006741;28;20128;-80
2024/01/02 00:03:46;;;;;;;13.40;3.83;;;;;;;5.14;100.00;99880.94;5006028;28;20401;-78
2024/01/02 00:06:15;;;;;;;12.13;3.47;;;;;;;5.10;100.00;99867.91;5006178;28;20030;-78
2024/01/02 00:08:41;;;;;;;12.18;4.10;;;;;;;5.19;100.00;99873.69;5007944;28;20117;-78
2024/01/02 00:11:06;;;;;;;14.82;3.97;;;;;;;5.19;100.00;99864.91;5006171;28;20084;-78
2024/01/02 00:13:31;;;;;;;12.88;3.65;;;;;;;5.19;100.00;99862.28;4990468;28;20049;-77
2024/01/02 00:15:57;;;;;;;11.63;3.70;;;;;;;5.24;100.00;99858.50;5005517;28;20034;-77
2024/01/02 00:18:22;;;;;;;9.52;3.58;;;;;;;5.26;100.00;99847.84;5005126;28;20532;-78
2024/01/02 00:20:47;;;;;;;19.40;3.60;;;;;;;5.25;100.00;99831.19;5004936;28;20029;-77
2024/01/02 00:23:13;;;;;;;11.77;3.67;;;;;;;5.16;100.00;99804.38;5005331;28;20061;-78
2024/01/02 00:25:38;;;;;;;10.73;3.22;;;;;;;5.32;100.00;99815.94;5004505;28;20041;-78
2024/01/02 00:28:03;;;;;;;16.58;3.83;;;;;;;5.31;100.00;99806.31;4983779;28;20037;-75
2024/01/02 00:30:31;;;;;;;10.98;3.15;;;;;;;5.27;100.00;99778.34;5002198;28;20037;-77
2024/01/02 00:32:57;;;;;;;11.30;3.17;;;;;;;5.34;100.00;99779.75;5003216;28;20149;-77
2024/01/02 00:35:22;;;;;;;7.35;2.88;;;;;;;5.32;100.00;99759.69;4985846;28;20026;-76
2024/01/02 00:37:48;;;;;;;10.15;3.25;;;;;;;5.38;100.00;99746.19;5003838;28;20060;-77
2024/01/02 00:40:13;;;;;;;12.38;3.10;;;;;;;5.29;100.00;99721.09;4986011;28;20504;-76
2024/01/02 00:42:38;;;;;;;9.52;3.08;;;;;;;5.41;100.00;99731.06;4983807;28;20038;-74
2024/01/02 00:45:05;;;;;;;8.25;2.78;;;;;;;5.36;100.00;99709.31;5002343;28;20126;-73
2024/01/02 00:47:31;;;;;;;13.65;3.45;;;;;;;5.32;100.00;99681.38;4977768;28;20567;-75
2024/01/02 00:49:56;;;;;;;10.98;3.17;;;;;;;5.39;100.00;99671.34;5004074;28;20045;-74
2024/01/02 00:52:21;;;;;;;6.10;2.47;;;;;;;5.40;100.00;99666.03;5006126;28;20037;-74
2024/01/02 00:54:47;;;;;;;7.28;2.35;;;;;;;5.42;100.00;99644.84;4986139;28;20058;-74
2024/01/02 00:57:12;;;;;;;5.25;2.42;;;;;;;5.41;100.00;99641.34;5004056;28;20363;-74
2024/01/02 00:59:38;;;;;;;6.25;2.80;;;;;;;5.39;100.00;99635.31;5000617;28;20034;-73
2024/01/02 01:02:04;;;;;;;10.10;3.05;;;;;;;5.32;100.00;99598.72;5001179;28;20570;-74
2024/01/02 01:04:29;;;;;;;5.60;2.40;;;;;;;5.41;100.00;99614.09;5001923;28;20486;-73
2024/01/02 01:06:55;;;;;;;6.40;2.38;;;;;;;5.40;100.00;99605.34;5003789;28;20037;-73
2024/01/02 01:09:20;;;;;;;7.07;2.22;;;;;;;5.34;100.00;99592.44;5004793;28;20496;-74
2024/01/02 01:11:45;;;;;;;10.02;3.17;;;;;;;5.31;100.00;99583.81;5005649;28;20022;-73
2024/01/02 01:14:11;;;;;;;5.35;2.22;;;;;;;5.43;100.00;99588.47;5005047;28;20112;-74
2024/01/02 01:16:36;;;;;;;15.18;2.63;;;;;;;5.42;100.00;99579.72;5002003;28;20042;-74
2024/01/02 01:19:02;;;;;;;5.35;2.45;;;;;;;5.42;100.00;99565.66;5003420;28;20125;-74
2024/01/02 01:21:27;;;;;;;7.20;2.67;;;;;;;5.42;100.00;99566.53;5003334;28;20133;-75
2024/01/02 01:23:54;;;;;;;7.65;2.78;;;;;;;5.47;100.00;99550.44;5004873;28;20527;-77
2024/01/02 01:26:20;;;;;;;3.85;2.10;;;;;;;5.28;100.00;99524.16;4964312;28;20076;-75
2024/01/02 01:28:45;;;;;;;3.65;2.28;;;;;;;5.48;100.00;99545.13;4973621;28;20105;-75
2024/01/02 01:31:11;;;;;;;6.15;2.45;;;;;;;5.50;100.00;99545.03;4982724;28;20548;-74
2024/01/02 01:33:36;;;;;;;5.50;2.53;;;;;;;5.45;100.00;99523.31;4984588;28;20042;-75
2024/01/02 01:36:02;;;;;;;5.18;2.00;;;;;;;5.47;100.00;99513.50;4983967;28;20101;-76
2024/01/02 01:38:27;;;;;;;3.83;2.00;;;;;;;5.50;100.00;99514.19;4967489;28;20088;-75
2024/01/02 01:40:52;;;;;;;4.05;1.80;;;;;;;5.39;100.00;99466.44;4983161;28;20057;-75
2024/01/02 01:43:18;;;;;;;4.70;1.80;;;;;;;5.52;100.00;99492.16;4983528;28;20113;-75
2024/01/02 01:45:43;;;;;;;3.13;1.60;;;;;;;5.47;100.00;99466.00;4977677;28;20042;-75
2024/01/02 01:48:09;;;;;;;3.05;1.60;;;;;;;5.48;100.00;99470.38;4982776;28;20034;-75
2024/01/02 01:50:36;;;;;;;3.10;1.70;;;;;;;5.49;100.00;99467.66;4982065;28;20064;-75
2024/01/02 01:53:02;;;;;;;1.42;1.30;;;;;;;5.48;100.00;99452.75;4984710;28;20038;-75
2024/01/02 01:55:28;;;;;;;2.38;1.40;;;;;;;5.47;100.00;99431.69;4983270;28;20112;-75
2024/01/02 01:57:54;;;;;;;3.20;1.52;;;;;;;5.49;100.00;99414.00;4984737;28;20121;-73
2024/01/02 02:00:20;;;;;;;3.72;1.50;;;;;;;5.49;100.00;99411.38;4978070;28;20049;-73
2024/01/02 02:02:45;;;;;;;2.58;1.65;;;;;;;5.48;100.00;99423.72;4975995;28;20098;-74
2024/01/02 02:05:11;;;;;;;3.28;1.50;;;;;;;5.45;100.00;99392.22;4983461;28;20117;-74
2024/01/02 02:07:40;;;;;;;2.50;1.50;;;;;;;5.52;100.00;99395.38;4971257;28;20041;-73
2024/01/02 02:10:08;;;;;;;2.80;1.30;;;;;;;5.49;100.00;99380.56;4976451;28;20038;-74
2024/01/02 02:12:39;;;;;;;1.58;1.23;;;;;;;5.39;100.00;99352.09;4983540;28;20062;-74
2024/01/02 02:15:05;;;;;;;3.10;1.67;;;;;;;5.57;100.00;99379.31;4980568;28;20560;-73
2024/01/02 02:17:30;;;;;;;1.30;1.20;;;;;;;5.56;100.00;99381.09;4984972;28;20042;-74
2024/01/02 02:19:58;;;;;;;1.70;1.30;;;;;;;5.59;100.00;99369.50;4985688;28;20126;-75
2024/01/02 02:22:34;;;;;;;2.88;1.15;;;;;;;5.59;100.00;99348.38;4978625;28;20506;-74
2024/01/02 02:25:01;;;;;;;2.30;1.10;;;;;;;5.62;100.00;99332.38;4985835;28;20042;-74
2024/01/02 02:27:27;;;;;;;1.83;1.20;;;;;;;5.62;100.00;99335.03;5005647;28;20328;-74
2024/01/02 02:29:52;;;;;;;2.47;1.15;;;;;;;5.63;100.00;99329.66;5001874;28;20042;-74
2024/01/02 02:32:19;;;;;;;1.30;1.20;;;;;;;5.65;100.00;99327.81;5004218;28;20137;-74
2024/01/02 02:34:45;;;;;;;2.25;1.20;;;;;;;5.66;100.00;99312.81;4988559;28;20584;-73
2024/01/02 02:37:10;;;;;;;1.50;1.10;;;;;;;5.59;100.00;99299.09;5001636;28;20401;-72
2024/01/02 02:39:35;;;;;;;1.33;1.10;;;;;;;5.65;100.00;99304.03;4987185;28;20321;-73
2024/01/02 02:42:01;;;;;;;1.83;1.05;;;;;;;5.64;100.00;99285.63;4988437;28;20122;-73
2024/01/02 02:44:26;;;;;;;1.67;1.15;;;;;;;5.66;100.00;99281.97;5005651;28;20042;-74
2024/01/02 02:46:52;;;;;;;1.20;1.10;;;;;;;5.58;100.00;99273.63;5008655;28;20049;-74
2024/01/02 02:49:17;;;;;;;1.05;0.95;;;;;;;5.52;100.00;99252.88;5007677;28;20595;-73
2024/01/02 02:51:43;;;;;;;1.52;1.35;;;;;;;5.64;100.00;99260.13;5004794;28;20121;-73
2024/01/02 02:54:08;;;;;;;2.22;1.10;;;;;;;5.63;100.00;99263.66;5006189;28;20033;-74
2024/01/02 02:56:34;;;;;;;1.63;1.20;;;;;;;5.64;100.00;99257.47;5006632;28;20041;-73
2024/01/02 02:58:59;;;;;;;1.25;1.15;;;;;;;5.67;100.00;99249.38;5002546;28;20064;-73
2024/01/02 03:01:25;;;;;;;1.98;1.20;;;;;;;5.72;100.00;99241.19;5001285;28;20473;-74
2024/01/02 03:03:51;;;;;;;1.95;1.25;;;;;;;5.67;100.00;99206.28;4987724;28;20042;-73
2024/01/02 03:06:16;;;;;;;1.20;1.10;;;;;;;5.75;100.00;99211.97;5002752;28;20042;-73
2024/01/02 03:08:42;;;;;;;1.40;1.10;;;;;;;5.75;100.00;99206.69;5003171;28;20124;-73
2024/01/02 03:11:07;;;;;;;1.20;1.10;;;;;;;5.79;100.00;99191.53;5004676;28;20064;-74
2024/01/02 03:13:32;;;;;;;1.00;1.00;;;;;;;5.78;100.00;99180.13;5003949;28;20036;-73
2024/01/02 03:15:58;;;;;;;2.80;1.30;;;;;;;5.79;100.00;99163.34;5004232;28;20046;-74
2024/01/02 03:18:23;;;;;;;1.48;1.10;;;;;;;5.77;100.00;99154.69;4991001;28;20046;-74
2024/01/02 03:20:49;;;;;;;1.63;1.25;;;;;;;5.81;100.00;99131.56;5001753;28;20034;-73
2024/01/02 03:23:14;;;;;;;1.55;1.17;;;;;;;5.84;100.00;99137.50;4986353;28;20057;-72
2024/01/02 03:25:39;;;;;;;1.02;1.00;;;;;;;5.87;100.00;99129.41;5003677;28;20166;-74
2024/01/02 03:28:05;;;;;;;1.30;1.20;;;;;;;5.72;100.00;99094.19;5009200;28;20069;-73
2024/01/02 03:30:31;;;;;;;1.20;1.10;;;;;;;5.90;100.00;99117.84;5004497;28;20072;-73
2024/01/02 03:32:56;;;;;;;1.25;1.10;;;;;;;5.90;100.00;99116.03;4992141;28;20453;-73
2024/01/02 03:35:22;;;;;;;1.20;1.10;;;;;;;5.93;100.00;99105.31;4982588;28;20252;-73
2024/01/02 03:37:47;;;;;;;1.38;1.10;;;;;;;5.95;100.00;99103.44;5007416;28;20518;-74
2024/01/02 03:40:14;;;;;;;0.95;0.95;;;;;;;5.98;100.00;99091.84;4984889;28;20068;-73
2024/01/02 03:42:40;;;;;;;1.02;1.02;;;;;;;6.04;100.00;99085.34;5009378;28;20061;-73
2024/01/02 03:45:08;;;;;;;1.17;1.10;;;;;;;6.04;100.00;99080.06;4992045;28;20042;-73
2024/01/02 03:47:42;;;;;;;1.10;1.10;;;;;;;6.04;100.00;99074.78;5008705;28;20076;-74
2024/01/02 03:50:08;;;;;;;0.95;0.95;;;;;;;6.00;100.00;99068.84;4997443;28;20094;-74
2024/01/02 03:52:34;;;;;;;1.45;1.10;;;;;;;6.02;100.00;99055.53;5013166;28;20025;-74
2024/01/02 03:54:59;;;;;;;1.10;1.00;;;;;;;6.18;100.00;99067.72;4992222;28;20077;-75
2024/01/02 03:57:26;;;;;;;1.05;1.00;;;;;;;6.22;100.00;99068.38;4991788;28;20436;-76
2024/01/02 03:59:52;;;;;;;1.20;1.10;;;;;;;6.29;100.00;99064.41;5004089;28;20169;-78
2024/01/02 04:02:18;;;;;;;1.02;1.00;;;;;;;6.32;100.00;99071.31;5006111;28;20508;-76
2024/01/02 04:04:44;;;;;;;0.93;0.90;;;;;;;6.35;100.00;99057.91;5007723;28;20515;-76
2024/01/02 04:07:09;;;;;;;1.00;1.00;;;;;;;6.36;100.00;99060.47;4990893;28;20034;-76
2024/01/02 04:09:35;;;;;;;1.00;1.00;;;;;;;6.43;100.00;99061.75;5009942;28;20108;-77
2024/01/02 04:12:00;;;;;;;1.00;1.00;;;;;;;6.37;100.00;99033.09;4989744;28;20074;-77
2024/01/02 04:14:26;;;;;;;1.00;1.00;;;;;;;6.49;100.00;99048.19;5015806;28;20034;-77
2024/01/02 04:16:51;;;;;;;1.10;1.00;;;;;;;6.47;100.00;99020.97;4994102;28;20591;-77
2024/01/02 04:19:17;;;;;;;1.00;1.00;;;;;;;6.42;100.00;99009.84;4986888;28;20059;-76
2024/01/02 04:21:43;;;;;;;0.90;0.90;;;;;;;6.62;100.00;99027.09;4994461;28;20034;-76
2024/01/02 04:24:09;;;;;;;1.00;1.00;;;;;;;6.66;100.00;99025.13;5007756;28;20030;-75
2024/01/02 04:26:35;;;;;;;1.10;1.10;;;;;;;6.70;100.00;99031.91;4991364;28;20407;-76
2024/01/02 04:29:01;;;;;;;1.00;1.00;;;;;;;6.75;100.00;99021.88;5009121;28;20041;-75
2024/01/02 04:31:27;;;;;;;1.85;1.00;;;;;;;6.80;100.00;99013.66;5012217;28;20044;-76
2024/01/02 04:33:53;;;;;;;1.25;1.15;;;;;;;6.83;100.00;99016.94;4991919;28;20133;-76
2024/01/02 04:36:18;;;;;;;1.30;1.30;;;;;;;6.83;100.00;99016.94;5007183;28;20065;-77
2024/01/02 04:38:44;;;;;;;1.30;1.20;;;;;;;6.91;100.00;99017.31;5010030;28;20447;-75
2024/01/02 04:41:11;;;;;;;1.33;1.27;;;;;;;6.82;100.00;98995.91;5010679;28;20120;-76
2024/01/02 04:43:37;;;;;;;1.40;1.30;;;;;;;6.77;100.00;98976.81;4993930;28;20049;-76
2024/01/02 04:46:03;;;;;;;1.50;1.40;;;;;;;6.56;100.00;98928.84;4992621;28;20710;-75
2024/01/02 04:48:29;;;;;;;1.63;1.52;;;;;;;6.85;100.00;98977.19;5002569;28;20038;-76
2024/01/02 04:50:54;;;;;;;1.83;1.73;;;;;;;7.10;100.00;99006.34;4996195;28;20432;-75
2024/01/02 04:53:19;;;;;;;2.40;2.20;;;;;;;7.10;100.00;99006.34;5008027;28;20081;-76
2024/01/02 04:55:45;;;;;;;2.58;2.38;;;;;;;7.05;100.00;98984.66;5007357;28;20037;-74
2024/01/02 04:58:10;;;;;;;2.70;2.50;;;;;;;7.19;100.00;99003.13;5007263;28;20062;-75
2024/01/02 05:00:35;;;;;;;2.30;2.20;;;;;;;7.17;100.00;98981.19;4998640;28;20038;-77
2024/01/02 05:03:01;;;;;;;2.40;2.20;;;;;;;7.29;100.00;98995.41;4994596;28;20049;-76
2024/01/02 05:05:27;;;;;;;2.30;2.20;;;;;;;7.33;100.00;99011.94;5011883;28;20112;-76
2024/01/02 05:07:52;;;;;;;2.30;2.20;;;;;;;7.06;100.00;98959.88;5002646;28;20038;-77
2024/01/02 05:10:18;;;;;;;2.10;2.00;;;;;;;7.29;100.00;98984.84;5009347;28;20072;-74
2024/01/02 05:12:43;;;;;;;2.17;1.98;;;;;;;7.47;100.00;99007.41;4993930;28;20034;-75
2024/01/02 05:15:11;;;;;;;1.55;1.45;;;;;;;7.44;100.00;99002.34;4992253;28;20400;-75
2024/01/02 05:17:37;;;;;;;1.60;1.50;;;;;;;7.54;100.00;98988.47;5002129;28;20045;-76
2024/01/02 05:20:03;;;;;;;1.70;1.60;;;;;;;7.66;100.00;99003.53;4991047;28;20045;-77
2024/01/02 05:22:29;;;;;;;1.40;1.30;;;;;;;7.70;100.00;99019.09;5007011;28;20092;-75
2024/01/02 05:24:59;;;;;;;1.40;1.30;;;;;;;7.63;100.00;98993.97;4995479;28;20049;-76
2024/01/02 05:27:24;;;;;;;1.40;1.30;;;;;;;7.78;100.00;99007.16;4988833;28;20051;-76
2024/01/02 05:29:50;;;;;;;1.27;1.27;;;;;;;7.87;100.00;99010.00;4986075;28;20042;-76
2024/01/02 05:32:15;;;;;;;1.20;1.20;;;;;;;7.68;100.00;98983.91;4991938;28;20030;-76
2024/01/02 05:34:40;;;;;;;1.40;1.30;;;;;;;7.82;100.00;98996.22;4990383;28;20041;-75
2024/01/02 05:37:07;;;;;;;1.38;1.30;;;;;;;7.99;100.00;99010.97;4973684;28;20442;-75
2024/01/02 05:39:33;;;;;;;1.25;1.25;;;;;;;7.95;100.00;98986.47;4992147;28;20069;-76
2024/01/02 05:41:58;;;;;;;2.17;1.40;;;;;;;8.09;100.00;98984.66;4992233;28;20073;-75
2024/01/02 05:44:25;;;;;;;1.27;1.20;;;;;;;8.13;100.00;98992.28;4966083;28;20045;-76
2024/01/02 05:46:50;;;;;;;1.98;1.42;;;;;;;8.20;100.00;98998.84;4989195;28;20041;-75
2024/01/02 05:49:16;;;;;;;1.40;1.30;;;;;;;8.23;100.00;99000.41;4970699;28;20552;-77
2024/01/02 05:51:41;;;;;;;1.40;1.30;;;;;;;8.31;100.00;99005.19;4987896;28;20032;-76
2024/01/02 05:54:06;;;;;;;1.23;1.20;;;;;;;8.38;100.00;99015.28;4983642;28;20068;-77
2024/01/02 05:56:32;;;;;;;1.20;1.20;;;;;;;8.40;100.00;99028.41;4972464;28;20038;-76
2024/01/02 05:58:57;;;;;;;1.13;1.13;;;;;;;8.40;100.00;98992.19;4965129;28;20042;-75
2024/01/02 06:01:23;;;;;;;1.13;1.13;;;;;;;8.37;100.00;99005.66;4987184;28;20046;-76
2024/01/02 06:03:48;;;;;;;1.33;1.23;;;;;;;8.30;100.00;99006.16;4969384;28;20034;-74
2024/01/02 06:06:14;;;;;;;1.23;1.13;;;;;;;8.53;100.00;99046.97;4986056;28;20080;-75
2024/01/02 06:08:39;;;;;;;1.20;1.10;;;;;;;8.56;100.00;99044.09;4984883;28;20042;-75
2024/01/02 06:11:05;;;;;;;1.10;1.10;;;;;;;8.58;100.00;99036.91;4962980;28;20043;-75
2024/01/02 06:13:30;;;;;;;1.15;1.15;;;;;;;8.57;100.00;99035.19;4983946;28;20037;-75
2024/01/02 06:15:56;;;;;;;1.25;1.20;;;;;;;8.66;100.00;99053.09;4986454;28;20022;-76
2024/01/02 06:18:21;;;;;;;1.48;1.38;;;;;;;8.57;100.00;99043.13;4976393;28;20413;-75
2024/01/02 06:20:47;;;;;;;1.20;1.20;;;;;;;8.47;100.00;99019.09;4986028;28;20524;-75
2024/01/02 06:23:13;;;;;;;1.33;1.13;;;;;;;8.69;100.00;99056.41;4988493;28;20030;-76
2024/01/02 06:25:40;;;;;;;1.50;1.40;;;;;;;8.60;100.00;99053.53;4992063;28;20045;-76
2024/01/02 06:28:05;;;;;;;1.50;1.40;;;;;;;8.59;100.00;99051.84;4988616;28;20049;-75
2024/01/02 06:30:31;;;;;;;1.38;1.27;;;;;;;8.52;100.00;99042.63;4989178;28;20037;-76
2024/01/02 06:32:57;;;;;;;1.85;1.75;;;;;;;8.75;100.00;99073.66;4990582;28;20042;-75
2024/01/02 06:35:23;;;;;;;1.60;1.50;;;;;;;8.59;100.00;99050.03;4991201;28;20060;-75
2024/01/02 06:37:49;;;;;;;1.80;1.70;;;;;;;8.72;100.00;99079.19;4990408;28;20118;-76
2024/01/02 06:40:20;;;;;;;1.90;1.75;;;;;;;8.34;100.00;99027.03;4991678;28;20193;-75
2024/01/02 06:43:04;;;;;;;2.03;1.70;;;;;;;8.78;100.00;99101.75;5009484;28;20062;-74
2024/01/02 06:45:32;;;;;;;1.88;1.77;;;;;;;8.76;100.00;99085.97;4949204;28;20031;-74
2024/01/02 06:48:38;;;;;;;1.92;1.80;;;;;;;8.81;100.00;99090.94;4982166;28;20041;-74
2024/01/02 06:51:08;;;;;;;3.20;2.40;;;;;;;8.72;100.00;99087.13;4993170;28;20038;-76
2024/01/02 06:53:34;;;;;;;2.80;2.50;;;;;;;8.81;100.00;99089.13;5003511;28;20347;-76
2024/01/02 06:56:03;;;;;;;2.95;2.60;;;;;;;8.81;100.00;99091.78;4984715;28;20651;-76
2024/01/02 06:58:34;;;;;;;6.20;3.15;;;;;;;8.70;100.00;99071.34;4993766;28;20046;-74
2024/01/02 07:01:01;;;;;;;3.78;2.95;;;;;;;8.86;100.00;99100.28;5013251;28;20073;-74
2024/01/02 07:03:27;;;;;;;5.63;3.08;;;;;;;8.55;100.00;99058.31;5016432;28;20030;-75
2024/01/02 07:05:53;;;;;;;5.18;3.53;;;;;;;8.70;100.00;99074.00;5015436;28;20038;-75
2024/01/02 07:08:19;;;;;;;5.20;3.67;;;;;;;8.81;100.00;99101.53;5014253;28;20041;-75
2024/01/02 07:10:51;;;;;;;4.88;3.80;;;;;;;8.86;100.00;99126.81;5021710;28;20029;-75
2024/01/02 07:13:17;;;;;;;5.78;3.88;;;;;;;8.75;100.00;99102.84;5011721;28;20038;-76
2024/01/02 07:15:43;;;;;;;5.55;4.47;;;;;;;8.72;100.00;99092.44;5005126;28;20038;-76
2024/01/02 07:18:11;;;;;;;6.63;4.50;;;;;;;8.81;100.00;99097.09;5027409;28;20037;-75
2024/01/02 07:20:37;;;;;;;7.05;4.80;;;;;;;8.42;100.00;99029.19;5013178;28;20395;-75
2024/01/02 07:23:06;;;;;;;7.88;5.35;;;;;;;8.65;100.00;99065.53;5010377;28;20117;-75
2024/01/02 07:25:32;;;;;;;10.95;6.10;;;;;;;8.85;100.00;99109.19;5013441;28;20072;-76
2024/01/02 07:28:02;;;;;;;8.38;6.00;;;;;;;8.73;100.00;99092.31;5026683;28;20566;-76
2024/01/02 07:30:30;;;;;;;9.18;5.80;;;;;;;8.93;100.00;99116.59;5008413;28;20049;-75
2024/01/02 07:32:57;;;;;;;8.45;5.90;;;;;;;9.02;100.00;99109.78;5026611;28;20042;-76
2024/01/02 07:35:23;;;;;;;9.50;5.45;;;;;;;8.96;100.00;99134.97;5008400;28;20037;-76
2024/01/02 07:37:49;;;;;;;11.05;6.20;;;;;;;8.88;100.00;99119.56;5032058;28;20037;-78
2024/01/02 07:40:15;;;;;;;10.73;5.93;;;;;;;9.04;100.00;99148.53;5030260;28;20037;-78
2024/01/02 07:42:41;;;;;;;9.10;5.93;;;;;;;8.96;100.00;99149.06;5010631;28;20060;-78
2024/01/02 07:45:07;;;;;;;12.65;6.63;;;;;;;9.03;100.00;99144.19;5008060;28;20042;-76
2024/01/02 07:47:33;;;;;;;11.13;6.65;;;;;;;8.95;100.00;99131.47;5017375;28;20111;-76
2024/01/02 07:49:58;;;;;;;11.18;6.00;;;;;;;9.06;100.00;99148.41;5032204;28;20065;-76
2024/01/02 07:52:24;;;;;;;9.38;5.90;;;;;;;9.06;100.00;99153.72;5035369;28;20065;-77
2024/01/02 07:54:49;;;;;;;12.80;6.85;;;;;;;9.11;100.00;99160.41;5019225;28;20037;-78
2024/01/02 07:57:15;;;;;;;10.43;6.32;;;;;;;9.10;100.00;99155.19;5003512;28;20037;-80
2024/01/02 07:59:40;;;;;;;10.65;6.68;;;;;;;9.03;100.00;99138.00;5020414;28;20071;-80
2024/01/02 08:02:05;;;;;;;10.45;6.57;;;;;;;9.14;100.00;99167.28;5025658;28;20048;-80
2024/01/02 08:04:31;;;;;;;12.52;6.85;;;;;;;9.10;100.00;99150.72;5008731;28;20068;-80
2024/01/02 08:06:57;;;;;;;10.32;6.38;;;;;;;9.04;100.00;99148.53;5026244;28;20057;-81
2024/01/02 08:09:23;;;;;;;9.45;6.53;;;;;;;9.16;100.00;99165.38;5026743;28;20037;-79
2024/01/02 08:11:48;;;;;;;10.10;6.22;;;;;;;9.07;100.00;99158.94;5026213;28;20033;-80
2024/01/02 08:14:14;;;;;;;9.07;6.25;;;;;;;9.17;100.00;99172.38;5025505;28;20033;-79
2024/01/02 08:16:40;;;;;;;11.35;6.45;;;;;;;9.18;100.00;99174.91;4995364;28;20037;-79
2024/01/02 08:19:07;;;;;;;10.55;6.18;;;;;;;9.20;100.00;99180.13;5025519;28;20124;-77
2024/01/02 08:21:33;;;;;;;7.80;5.50;;;;;;;9.18;100.00;99160.81;5025026;28;20084;-80
2024/01/02 08:23:58;;;;;;;9.10;5.80;;;;;;;9.23;100.00;99166.63;5023828;28;20038;-80
2024/01/02 08:26:24;;;;;;;9.23;5.40;;;;;;;9.21;100.00;99173.84;5024707;28;20419;-79
2024/01/02 08:28:49;;;;;;;9.57;5.70;;;;;;;9.19;100.00;99178.41;5025219;28;20558;-81
2024/01/02 08:31:14;;;;;;;6.43;5.20;;;;;;;9.21;100.00;99174.72;5025615;28;20493;-80
2024/01/02 08:33:40;;;;;;;6.82;5.32;;;;;;;9.17;100.00;99170.56;5033300;28;20107;-80
2024/01/02 08:36:06;;;;;;;7.70;5.38;;;;;;;9.18;100.00;99164.31;5008935;28;20516;-81
2024/01/02 08:38:32;;;;;;;8.13;5.22;;;;;;;9.29;100.00;99187.44;5024791;28;20586;-79
2024/01/02 08:40:57;;;;;;;7.25;5.05;;;;;;;9.26;100.00;99179.69;5025132;28;20116;-80
2024/01/02 08:43:22;;;;;;;6.75;4.60;;;;;;;9.32;100.00;99187.22;5025521;28;20069;-82
2024/01/02 08:45:48;;;;;;;6.32;4.50;;;;;;;9.33;100.00;99180.09;5024788;28;20112;-81
2024/01/02 08:48:14;;;;;;;7.70;4.90;;;;;;;9.33;100.00;99169.47;5025318;28;20055;-80
2024/01/02 08:50:42;;;;;;;7.82;4.40;;;;;;;9.34;100.00;99176.47;5024453;28;20034;-81
2024/01/02 08:53:09;;;;;;;7.15;4.65;;;;;;;9.38;100.00;99180.59;5028582;28;20033;-81
2024/01/02 08:55:35;;;;;;;5.53;4.70;;;;;;;9.42;100.00;99174.97;5025696;28;20038;-79
2024/01/02 08:58:00;;;;;;;6.95;4.47;;;;;;;9.43;100.00;99178.47;5001037;28;20167;-81
2024/01/02 09:00:27;;;;;;;6.65;4.57;;;;;;;9.43;100.00;99173.16;5023642;28;20105;-78
2024/01/02 09:02:52;;;;;;;6.80;4.80;;;;;;;9.44;100.00;99173.03;5025291;28;20124;-78
2024/01/02 09:05:17;;;;;;;5.07;4.30;;;;;;;9.44;100.00;99181.00;5026810;28;20203;-77
2024/01/02 09:07:43;;;;;;;5.00;4.50;;;;;;;9.43;100.00;99184.63;5024182;28;20470;-77
2024/01/02 09:10:08;;;;;;;4.30;3.90;;;;;;;9.30;100.00;99156.41;5026961;28;20033;-78
2024/01/02 09:12:34;;;;;;;4.80;4.30;;;;;;;9.32;100.00;99163.31;5024117;28;20488;-77
2024/01/02 09:15:00;;;;;;;4.68;4.05;;;;;;;9.42;100.00;99161.69;5022481;28;20041;-77
2024/01/02 09:17:28;;;;;;;5.50;4.35;;;;;;;9.43;100.00;99160.72;5017371;28;20264;-77
2024/01/02 09:19:53;;;;;;;4.78;3.95;;;;;;;9.43;100.00;99155.41;5023126;28;20526;-77
2024/01/02 09:22:19;;;;;;;4.18;3.78;;;;;;;9.45;100.00;99161.47;5022396;28;20037;-77
2024/01/02 09:24:46;;;;;;;5.10;4.10;;;;;;;9.40;100.00;99141.50;5015589;28;20037;-78
2024/01/02 09:27:14;;;;;;;3.90;3.47;;;;;;;9.45;100.00;99142.88;5022313;28;20050;-77
2024/01/02 09:29:39;;;;;;;3.10;2.83;;;;;;;9.42;100.00;99135.13;5025176;28;20095;-78
2024/01/02 09:32:05;;;;;;;3.13;2.90;;;;;;;9.42;100.00;99142.25;5024374;28;20037;-78
2024/01/02 09:34:30;;;;;;;2.75;2.50;;;;;;;9.42;100.00;99124.50;5025723;28;20550;-79
2024/01/02 09:36:59;;;;;;;3.47;3.00;;;;;;;9.45;100.00;99134.06;5012144;28;20542;-78
2024/01/02 09:39:26;;;;;;;2.60;2.40;;;;;;;9.39;100.00;99127.38;4990468;28;20045;-77
2024/01/02 09:42:21;;;;;;;2.95;2.58;;;;;;;9.47;100.00;99121.50;5006718;28;20042;-76
2024/01/02 09:45:26;;;;;;;2.60;2.40;;;;;;;9.22;100.00;99088.78;5013590;28;20247;-77
2024/01/02 09:48:04;;;;;;;3.00;2.80;;;;;;;9.47;100.00;99129.47;5031617;28;20079;-77
2024/01/02 09:50:40;;;;;;;3.05;2.85;;;;;;;9.06;100.00;99060.81;5031107;28;20041;-77
2024/01/02 09:53:21;;;;;;;4.30;3.95;;;;;;;9.48;100.00;99120.53;5031759;28;20037;-76
2024/01/02 09:56:11;;;;;;;4.20;3.80;;;;;;;9.02;100.00;99040.78;5023672;28;20041;-78
2024/01/02 09:59:08;;;;;;;5.85;5.25;;;;;;;9.50;100.00;99107.16;5027632;28;20034;-77
2024/01/02 10:01:40;;;;;;;5.43;4.90;;;;;;;9.52;100.00;99111.38;4994168;28;20038;-80
2024/01/02 10:04:34;;;;;;;6.15;5.55;;;;;;;9.56;100.00;99112.00;5027439;28;20041;-80
2024/01/02 10:07:21;;;;;;;7.28;4.53;;;;;;;9.58;100.00;99126.88;5018529;28;20048;-81
2024/01/02 10:10:03;;;;;;;5.38;4.57;;;;;;;9.58;100.00;99128.69;5021804;28;20033;-81
2024/01/02 10:12:45;;;;;;;5.68;4.38;;;;;;;9.51;100.00;99107.03;5013403;28;20531;-80
2024/01/02 10:15:27;;;;;;;5.38;4.30;;;;;;;9.58;100.00;99123.38;5029877;28;20033;-79
2024/01/02 10:18:05;;;;;;;5.10;4.60;;;;;;;9.58;100.00;99116.25;5015018;28;20614;-79
2024/01/02 10:20:59;;;;;;;5.28;4.78;;;;;;;9.60;100.00;99121.44;5019645;28;20160;-80
2024/01/02 10:23:54;;;;;;;4.40;3.97;;;;;;;9.60;100.00;99101.03;5025374;28;20241;-81
2024/01/02 10:26:23;;;;;;;3.75;3.45;;;;;;;9.58;100.00;99099.47;5025864;28;20050;-81
2024/01/02 10:28:50;;;;;;;3.80;3.50;;;;;;;9.53;100.00;99093.63;5027967;28;20419;-80
2024/01/02 10:31:58;;;;;;;2.83;2.60;;;;;;;9.53;100.00;99104.25;5025341;28;20295;-80
2024/01/02 10:35:08;;;;;;;2.95;2.70;;;;;;;9.58;100.00;99081.72;5030836;28;20048;-81
2024/01/02 10:37:39;;;;;;;3.30;3.00;;;;;;;9.41;100.00;99071.53;4990480;28;20141;-80
2024/01/02 10:40:07;;;;;;;2.75;2.55;;;;;;;9.53;100.00;99083.00;4973474;28;20042;-79
2024/01/02 10:42:57;;;;;;;2.58;2.40;;;;;;;9.52;100.00;99076.03;4968884;28;20046;-79
2024/01/02 10:45:56;;;;;;;2.58;2.40;;;;;;;9.54;100.00;99087.41;4982382;28;20069;-82
2024/01/02 10:48:36;;;;;;;3.13;2.30;;;;;;;9.51;100.00;99063.72;4987293;28;20524;-81
2024/01/02 10:51:08;;;;;;;2.20;2.10;;;;;;;9.35;100.00;99038.28;4966092;28;20097;-79
2024/01/02 10:53:55;;;;;;;2.40;2.20;;;;;;;9.47;100.00;99069.25;4981292;28;20153;-80
2024/01/02 10:56:48;;;;;;;2.20;2.10;;;;;;;9.45;100.00;99065.03;4982633;28;20396;-80
2024/01/02 10:59:29;;;;;;;2.33;2.10;;;;;;;9.42;100.00;99066.09;4981510;28;20081;-80
2024/01/02 11:02:07;;;;;;;2.17;2.05;;;;;;;9.42;100.00;99071.41;4984406;28;20575;-80
2024/01/02 11:04:47;;;;;;;2.35;2.15;;;;;;;9.34;100.00;99065.81;4988290;28;20046;-80
2024/01/02 11:07:16;;;;;;;2.10;2.00;;;;;;;9.30;100.00;99067.00;4983866;28;20076;-81
2024/01/02 11:10:03;;;;;;;1.90;1.80;;;;;;;9.29;100.00;99067.97;4984690;28;20058;-79
2024/01/02 11:12:50;;;;;;;2.85;2.15;;;;;;;9.23;100.00;99061.28;4985005;28;20045;-81
2024/01/02 11:15:19;;;;;;;2.22;2.10;;;;;;;9.10;100.00;99049.03;5017496;28;20507;-81
2024/01/02 11:17:45;;;;;;;2.00;1.80;;;;;;;9.17;100.00;99040.50;5025313;28;20064;-77
2024/01/02 11:20:14;;;;;;;1.98;1.88;;;;;;;9.13;100.00;99049.66;5025431;28;20045;-79
2024/01/02 11:23:01;;;;;;;1.75;1.65;;;;;;;9.09;100.00;99037.56;5025090;28;20055;-81
2024/01/02 11:25:31;;;;;;;1.98;1.88;;;;;;;9.12;100.00;99037.34;5023748;28;20586;-79
2024/01/02 11:28:00;;;;;;;2.45;2.30;;;;;;;9.05;100.00;99012.22;5025286;28;20075;-79
2024/01/02 11:30:34;;;;;;;2.35;2.15;;;;;;;8.98;100.00;98997.69;5024100;28;20144;-78
2024/01/02 11:33:40;;;;;;;5.93;2.20;;;;;;;9.04;100.00;99001.72;5023628;28;20067;-80
2024/01/02 11:36:33;;;;;;;2.25;2.05;;;;;;;9.08;100.00;99013.81;4942892;28;20134;-81
2024/01/02 11:39:40;;;;;;;2.75;2.00;;;;;;;8.90;100.00;98985.03;4952625;28;20051;-80